Time;durP1;ratioP1;P1;durP2;ratioP2;P2;SDS_P1;SDS_P2;PMS_P1;PMS_P2;Temp;Humidity;BMP_temperature;BMP_pressure;BME280_temperature;BME280_humidity;BME280_pressure;Samples;Min_cycle;Max_cycle;Signal;HPM_P1;HPM_P2
2022/08/19 00:00:40;;;;;;;38.10;34.40;;;19.30;99.90;;;19.85;92.06;97341.13;5027073;28;21014;-72
2022/08/19 00:03:08;;;;;;;36.90;33.37;;;19.40;99.90;;;19.85;91.55;97319.19;5028745;28;20458;-72
2022/08/19 00:05:36;;;;;;;33.57;30.63;;;19.40;99.90;;;19.97;90.93;97322.38;5027394;28;20457;-71
2022/08/19 00:08:03;;;;;;;34.77;31.67;;;19.50;99.90;;;19.94;90.81;97329.25;5029325;28;20477;-70
2022/08/19 00:10:31;;;;;;;33.37;30.37;;;19.50;99.90;;;19.87;91.34;97327.94;5026021;28;20465;-70
2022/08/19 00:13:00;;;;;;;34.80;31.83;;;19.50;99.90;;;19.80;91.77;97309.94;5028651;28;20505;-70
2022/08/19 00:15:27;;;;;;;34.57;31.17;;;19.40;99.90;;;19.99;91.29;97324.78;5026026;28;20451;-71
2022/08/19 00:17:55;;;;;;;33.67;30.67;;;19.50;99.90;;;19.91;91.54;97318.00;5028380;28;20461;-70
2022/08/19 00:20:23;;;;;;;33.27;30.20;;;19.50;99.90;;;19.96;92.10;97318.00;5026378;28;20550;-69
2022/08/19 00:22:51;;;;;;;34.60;31.57;;;19.50;99.90;;;19.87;91.15;97323.28;5028745;28;21009;-71
2022/08/19 00:25:19;;;;;;;33.70;30.80;;;19.50;99.90;;;19.89;91.08;97317.50;5024874;28;20478;-70
2022/08/19 00:27:46;;;;;;;34.30;31.00;;;19.40;99.90;;;19.75;91.08;97320.13;5027118;28;20878;-70
2022/08/19 00:30:15;;;;;;;35.40;32.30;;;19.30;99.90;;;19.77;91.82;97313.25;5027100;28;20451;-71
2022/08/19 00:32:44;;;;;;;35.87;32.40;;;19.30;99.90;;;19.68;92.48;97299.38;5028385;28;20476;-71
2022/08/19 00:35:11;;;;;;;37.50;34.10;;;19.30;99.90;;;19.73;92.38;97308.66;5042000;28;20464;-70
2022/08/19 00:37:42;;;;;;;39.30;35.70;;;19.30;99.90;;;19.58;93.39;97310.47;5028522;28;20942;-71
2022/08/19 00:40:12;;;;;;;39.83;36.30;;;19.20;99.90;;;19.65;93.65;97332.03;5012417;28;20458;-70
2022/08/19 00:42:39;;;;;;;37.10;33.60;;;19.20;99.90;;;19.74;92.68;97319.31;5008605;28;20593;-70
2022/08/19 00:45:16;;;;;;;38.00;34.50;;;19.20;99.90;;;19.66;92.69;97318.03;5007142;28;20793;-70
2022/08/19 00:47:44;;;;;;;39.03;35.40;;;19.20;99.90;;;19.60;93.57;97316.47;5009197;28;20455;-70
2022/08/19 00:50:15;;;;;;;38.50;35.07;;;19.20;99.90;;;19.77;92.63;97335.16;5013717;28;20449;-70
2022/08/19 00:52:45;;;;;;;36.20;32.77;;;19.20;99.90;;;19.89;92.35;97347.63;5017339;28;20482;-71
2022/08/19 00:55:18;;;;;;;36.90;33.70;;;19.20;99.90;;;19.77;91.70;97324.19;5012145;28;20499;-71
2022/08/19 00:57:54;;;;;;;35.83;32.67;;;19.30;99.90;;;19.88;91.65;97346.84;5044045;28;20518;-70
2022/08/19 01:00:26;;;;;;;35.07;32.07;;;19.30;99.90;;;19.96;90.79;97343.47;5027554;28;20460;-71
2022/08/19 01:02:54;;;;;;;35.07;32.03;;;19.40;99.90;;;19.97;90.43;97344.28;5043747;28;20950;-71
2022/08/19 01:05:24;;;;;;;37.20;33.67;;;19.50;99.90;;;19.91;91.27;97331.72;5026026;28;20551;-70
2022/08/19 01:07:52;;;;;;;36.27;32.50;;;19.50;99.90;;;20.04;89.88;97339.25;5030069;28;21114;-69
2022/08/19 01:10:24;;;;;;;34.30;31.13;;;19.50;99.90;;;19.87;90.24;97341.63;5045762;28;20519;-71
2022/08/19 01:12:53;;;;;;;35.40;32.30;;;19.50;99.90;;;19.89;90.87;97337.50;5041984;28;20462;-70
2022/08/19 01:15:27;;;;;;;35.57;32.37;;;19.50;99.90;;;19.81;90.04;97318.97;5025937;28;20476;-70
2022/08/19 01:17:57;;;;;;;35.97;32.70;;;19.50;99.90;;;19.87;90.15;97344.38;5040658;28;20542;-69
2022/08/19 01:20:25;;;;;;;34.67;31.67;;;19.50;99.90;;;19.99;90.25;97347.56;5026952;28;20446;-70
2022/08/19 01:22:58;;;;;;;34.20;31.30;;;19.50;99.90;;;20.20;89.26;97348.09;5029664;28;20457;-71
2022/08/19 01:25:29;;;;;;;35.57;32.47;;;19.60;99.90;;;20.06;89.10;97319.78;5020886;28;20882;-70
2022/08/19 01:27:57;;;;;;;35.20;31.93;;;19.60;99.90;;;20.29;89.09;97351.00;5047153;28;20483;-71
2022/08/19 01:30:30;;;;;;;34.97;31.43;;;19.70;99.90;;;20.19;88.93;97340.16;5029091;28;20903;-70
2022/08/19 01:33:00;;;;;;;36.20;32.90;;;19.70;99.90;;;19.75;89.08;97293.53;5031303;28;20465;-70
2022/08/19 01:35:31;;;;;;;34.80;31.60;;;19.60;99.90;;;19.85;90.08;97346.59;5030204;28;20841;-71
2022/08/19 01:38:07;;;;;;;35.60;32.57;;;19.50;99.90;;;19.66;90.70;97336.41;5031179;28;20553;-69
2022/08/19 01:40:36;;;;;;;35.67;32.40;;;19.40;99.90;;;19.80;89.65;97347.47;5042029;28;20461;-70
2022/08/19 01:43:05;;;;;;;36.27;32.97;;;19.50;99.90;;;19.76;89.95;97341.75;5026806;28;20990;-71
2022/08/19 01:45:35;;;;;;;36.77;33.33;;;19.50;99.90;;;19.93;89.77;97354.19;5009554;28;20451;-70
2022/08/19 01:48:04;;;;;;;37.77;34.23;;;19.50;99.90;;;20.03;89.72;97351.34;5026873;28;20455;-69
2022/08/19 01:50:33;;;;;;;34.87;31.87;;;19.60;99.90;;;19.93;89.69;97363.25;5026857;28;20515;-70
2022/08/19 01:53:07;;;;;;;36.10;33.00;;;19.50;99.90;;;20.03;88.98;97365.03;5031350;28;20450;-70
2022/08/19 01:55:36;;;;;;;38.03;34.63;;;19.60;99.90;;;19.96;88.91;97370.06;5029264;28;20458;-69
2022/08/19 01:58:06;;;;;;;36.33;33.20;;;19.50;99.90;;;20.07;88.56;97379.78;5029419;28;20488;-68
2022/08/19 02:00:34;;;;;;;36.23;32.93;;;19.50;99.90;;;20.01;89.31;97372.75;5029800;28;20544;-68
2022/08/19 02:03:01;;;;;;;36.33;33.10;;;19.50;99.90;;;20.04;88.53;97366.66;5046249;28;20461;-69
2022/08/19 02:05:29;;;;;;;34.20;30.87;;;19.50;99.90;;;20.01;88.63;97361.78;5028727;28;21036;-69
2022/08/19 02:07:57;;;;;;;36.50;33.20;;;19.50;99.90;;;20.00;88.73;97360.16;5029621;28;20465;-69
2022/08/19 02:10:26;;;;;;;37.60;34.20;;;19.50;99.90;;;19.91;89.73;97348.16;5027708;28;20461;-71
2022/08/19 02:12:53;;;;;;;39.40;35.80;;;19.50;99.90;;;20.01;89.24;97359.03;5030090;28;20832;-69
2022/08/19 02:15:21;;;;;;;37.93;34.53;;;19.50;99.90;;;20.08;89.08;97364.97;5027163;28;20449;-69
2022/08/19 02:17:49;;;;;;;39.97;36.30;;;19.50;99.90;;;20.17;87.98;97386.25;5028850;28;20454;-70
2022/08/19 02:20:17;;;;;;;38.00;34.47;;;19.60;99.90;;;20.16;88.13;97390.13;5029276;28;20450;-69
2022/08/19 02:22:44;;;;;;;37.80;34.10;;;19.60;99.90;;;20.01;88.25;97402.91;5030445;28;20451;-71
2022/08/19 02:25:13;;;;;;;37.57;33.97;;;19.60;99.90;;;20.15;87.85;97405.72;5028969;28;20453;-69
2022/08/19 02:27:43;;;;;;;35.60;32.50;;;19.60;99.90;;;20.13;88.24;97401.66;5031013;28;20468;-70
2022/08/19 02:30:16;;;;;;;36.80;33.40;;;19.60;99.90;;;20.06;89.06;97413.78;5027950;28;20490;-70
2022/08/19 02:32:44;;;;;;;36.77;33.37;;;19.60;99.90;;;20.08;87.99;97400.59;5029493;28;20458;-70
2022/08/19 02:35:12;;;;;;;38.60;34.80;;;19.60;99.90;;;20.12;87.68;97400.84;5028144;28;20548;-70
2022/08/19 02:40:24;;;;;;;40.90;36.63;;;19.50;99.90;;;19.96;88.13;97403.78;5024477;28;20539;-70
2022/08/19 02:42:52;;;;;;;39.27;35.37;;;19.50;99.90;;;20.00;88.15;97409.50;5010896;28;20453;-71
2022/08/19 02:45:20;;;;;;;38.90;35.30;;;19.50;99.90;;;20.00;87.98;97414.16;5008304;28;20861;-71
2022/08/19 02:47:48;;;;;;;36.63;32.93;;;19.50;99.90;;;20.12;87.60;97424.72;5010341;28;20470;-69
2022/08/19 02:50:15;;;;;;;37.47;34.10;;;19.50;99.90;;;20.15;87.19;97418.66;5009099;28;20508;-70
2022/08/19 02:52:42;;;;;;;39.27;35.57;;;19.60;99.90;;;20.12;87.25;97421.97;5010394;28;20447;-70
2022/08/19 02:55:10;;;;;;;40.87;36.97;;;19.60;99.90;;;20.18;86.84;97415.31;5011946;28;20492;-70
2022/08/19 02:57:37;;;;;;;38.87;35.07;;;19.60;99.90;;;20.09;87.45;97401.44;5029186;28;20526;-71
2022/08/19 03:00:11;;;;;;;39.87;35.80;;;19.60;99.90;;;20.12;87.79;97411.00;5044052;28;20520;-71
2022/08/19 03:02:38;;;;;;;37.73;34.33;;;19.60;99.90;;;20.06;87.77;97413.00;5028914;28;20955;-69
2022/08/19 03:05:09;;;;;;;37.63;34.10;;;19.60;99.90;;;20.02;88.31;97407.28;5043913;28;20446;-71
2022/08/19 03:07:37;;;;;;;40.47;36.50;;;19.50;99.90;;;20.14;88.32;97403.31;5028792;28;20538;-70
2022/08/19 03:10:05;;;;;;;39.93;36.07;;;19.60;99.90;;;20.07;88.50;97412.69;5008713;28;20539;-69
2022/08/19 03:12:36;;;;;;;39.23;35.23;;;19.60;99.90;;;20.16;88.31;97395.59;5009638;28;20504;-69
2022/08/19 03:15:08;;;;;;;38.63;34.70;;;19.60;99.90;;;20.11;88.00;97396.47;5007964;28;20600;-70
2022/08/19 03:17:35;;;;;;;41.83;37.83;;;19.60;99.90;;;20.01;89.34;97389.19;5009628;28;20450;-70
2022/08/19 03:20:03;;;;;;;39.87;36.07;;;19.50;99.90;;;20.01;88.75;97383.72;5035534;28;20934;-70
2022/08/19 03:22:31;;;;;;;39.10;35.30;;;19.60;99.90;;;20.05;88.63;97384.75;5044208;28;20836;-71
2022/08/19 03:24:59;;;;;;;41.03;37.03;;;19.60;99.90;;;19.88;89.73;97373.41;5027591;28;20777;-69
2022/08/19 03:27:26;;;;;;;40.17;36.20;;;19.50;99.90;;;19.91;89.31;97381.06;5043699;28;20746;-70
2022/08/19 03:29:54;;;;;;;40.27;36.60;;;19.50;99.90;;;20.03;89.55;97381.50;5026185;28;20457;-70
2022/08/19 03:32:22;;;;;;;40.93;36.90;;;19.50;99.90;;;20.04;88.86;97371.34;5028823;28;20446;-70
2022/08/19 03:34:50;;;;;;;40.93;36.83;;;19.50;99.90;;;19.82;88.91;97337.03;5027784;28;20472;-69
2022/08/19 03:37:18;;;;;;;38.53;34.93;;;19.50;99.90;;;19.96;88.86;97370.06;5044192;28;20451;-69
2022/08/19 03:39:45;;;;;;;38.43;34.63;;;19.50;99.90;;;19.97;88.99;97352.50;5015765;28;20463;-70
2022/08/19 03:42:13;;;;;;;37.43;33.93;;;19.50;99.90;;;19.91;88.72;97353.63;5022239;28;20493;-71
2022/08/19 03:44:42;;;;;;;39.67;35.97;;;19.50;99.90;;;19.89;89.59;97358.59;5042357;28;20666;-69
2022/08/19 03:47:09;;;;;;;37.80;34.17;;;19.50;99.90;;;19.90;89.65;97360.22;5029251;28;20438;-69
2022/08/19 03:49:38;;;;;;;39.70;35.87;;;19.40;99.90;;;20.05;89.18;97360.06;5028227;28;20453;-70
2022/08/19 03:52:07;;;;;;;38.80;34.97;;;19.50;99.90;;;20.09;89.41;97374.03;5029117;28;20469;-69
2022/08/19 03:54:35;;;;;;;42.00;37.80;;;19.50;99.90;;;20.00;89.32;97373.03;5026953;28;20503;-69
2022/08/19 03:57:03;;;;;;;42.27;37.97;;;19.60;99.90;;;19.96;89.19;97359.09;5029185;28;20464;-69
2022/08/19 03:59:33;;;;;;;42.73;38.43;;;19.60;99.90;;;19.97;89.41;97352.50;5027135;28;20452;-70
2022/08/19 04:02:04;;;;;;;40.93;36.83;;;19.60;99.90;;;19.95;89.88;97344.56;5028428;28;20553;-70
2022/08/19 04:04:31;;;;;;;42.43;38.27;;;19.50;99.90;;;20.01;89.35;97349.97;5026900;28;20458;-68
2022/08/19 04:06:59;;;;;;;44.00;39.63;;;19.50;99.90;;;19.94;89.56;97355.81;5026918;28;20884;-70
2022/08/19 04:09:27;;;;;;;41.67;37.47;;;19.50;99.90;;;19.89;89.33;97353.13;5027712;28;20482;-69
2022/08/19 04:11:57;;;;;;;42.77;38.57;;;19.50;99.90;;;19.98;89.41;97351.41;5028135;28;20455;-70
2022/08/19 04:14:29;;;;;;;44.30;39.70;;;19.50;99.90;;;20.02;88.65;97351.63;5026790;28;20869;-70
2022/08/19 04:16:58;;;;;;;40.73;36.70;;;19.50;99.90;;;19.91;88.75;97365.44;5027839;28;20455;-69
2022/08/19 04:19:26;;;;;;;40.80;36.50;;;19.50;99.90;;;19.84;89.29;97375.13;5042087;28;20463;-69
2022/08/19 04:21:55;;;;;;;41.43;37.17;;;19.50;99.90;;;19.47;88.97;97331.66;5009009;28;20946;-69
2022/08/19 04:24:24;;;;;;;41.73;37.37;;;19.40;99.90;;;19.87;89.00;97385.50;5006835;28;20455;-70
2022/08/19 04:26:52;;;;;;;43.40;39.10;;;19.40;99.90;;;19.94;88.81;97381.31;5027785;28;20466;-69
2022/08/19 04:29:24;;;;;;;40.80;36.70;;;19.50;99.90;;;19.96;88.81;97394.75;5027902;28;20499;-72
2022/08/19 04:31:54;;;;;;;41.27;37.13;;;19.50;99.90;;;19.95;88.24;97395.84;5043245;28;20466;-70
2022/08/19 04:34:24;;;;;;;39.50;35.50;;;19.50;99.90;;;19.86;88.51;97395.63;5027209;28;20572;-71
2022/08/19 04:36:54;;;;;;;41.77;37.50;;;19.40;99.90;;;19.87;88.20;97405.50;5028660;28;20705;-70
2022/08/19 04:42:38;;;;;;;38.63;34.70;;;19.50;99.90;;;19.92;87.88;97412.88;5042652;28;20799;-72
2022/08/19 04:44:59;;;;;;;40.20;35.90;;;19.50;99.90;;;19.95;87.92;97412.31;5023183;28;20462;-69
2022/08/19 04:47:27;;;;;;;40.93;36.80;;;19.50;99.90;;;20.02;87.92;97423.72;5008286;28;20536;-69
2022/08/19 04:49:54;;;;;;;41.33;37.33;;;19.50;99.90;;;20.00;87.85;97423.19;5010977;28;20461;-70
2022/08/19 04:52:21;;;;;;;40.30;36.30;;;19.50;99.90;;;20.08;87.65;97436.25;5027754;28;20450;-70
2022/08/19 04:54:50;;;;;;;40.03;35.87;;;19.50;99.90;;;20.06;87.50;97435.72;5040090;28;20472;-70
2022/08/19 04:57:18;;;;;;;40.57;36.20;;;19.60;99.90;;;20.01;87.59;97424.84;5029718;28;20461;-69
2022/08/19 04:59:45;;;;;;;39.30;35.40;;;19.60;99.90;;;20.21;86.93;97439.41;5030855;28;20453;-70
2022/08/19 05:02:12;;;;;;;39.17;35.30;;;19.60;99.90;;;20.25;86.73;97432.25;5031899;28;20452;-71
2022/08/19 05:04:39;;;;;;;39.77;35.67;;;19.70;99.90;;;20.28;86.26;97439.03;5030258;28;20506;-70
2022/08/19 05:07:08;;;;;;;37.77;34.03;;;19.80;99.90;;;20.08;85.87;97403.34;5030309;28;20460;-71
2022/08/19 05:09:36;;;;;;;39.07;35.27;;;19.80;99.90;;;20.21;85.50;97445.72;5028490;28;20790;-70
2022/08/19 05:12:06;;;;;;;37.10;33.60;;;19.80;99.90;;;20.35;85.19;97456.78;5045042;28;20974;-70
2022/08/19 05:14:33;;;;;;;37.03;33.40;;;19.80;99.90;;;20.30;85.94;97469.72;5026000;28;20478;-71
2022/08/19 05:17:02;;;;;;;36.07;32.67;;;19.80;99.90;;;20.41;85.04;97476.75;5010843;28;20461;-71
2022/08/19 05:22:34;;;;;;;35.57;32.13;;;19.90;99.90;;;20.36;84.59;97472.13;5011997;28;20501;-70
2022/08/19 05:25:07;;;;;;;36.63;33.13;;;19.90;99.90;;;20.29;84.31;97471.69;5021323;28;20625;-69
2022/08/19 05:27:36;;;;;;;34.50;31.40;;;19.90;99.90;;;20.32;84.32;97478.47;5031640;28;20450;-70
2022/08/19 05:30:06;;;;;;;35.07;31.77;;;19.90;99.90;;;20.50;84.03;97471.41;5045450;28;20441;-70
2022/08/19 05:32:33;;;;;;;35.00;31.73;;;19.90;99.90;;;20.67;82.95;97471.72;5046232;28;20547;-70
2022/08/19 05:35:00;;;;;;;35.23;31.90;;;20.10;99.90;;;20.77;82.68;97464.47;5044832;28;20660;-69
2022/08/19 05:37:28;;;;;;;34.13;31.13;;;20.10;99.90;;;20.89;82.24;97459.41;5030282;28;20544;-70
2022/08/19 05:39:56;;;;;;;35.00;31.83;;;20.30;99.90;;;20.95;81.59;97465.63;5017833;28;20469;-70
2022/08/19 05:42:24;;;;;;;33.00;29.50;;;20.40;99.90;;;21.03;80.90;97475.13;5037359;28;20455;-70
2022/08/19 05:44:52;;;;;;;34.30;31.30;;;20.40;99.90;;;20.94;81.61;97466.75;5029395;28;20545;-70
2022/08/19 05:47:21;;;;;;;33.30;30.30;;;20.50;99.90;;;20.98;80.93;97455.97;5030454;28;20956;-69
2022/08/19 05:49:50;;;;;;;32.77;29.67;;;20.60;99.60;;;21.29;79.76;97480.22;5028577;28;20972;-70
2022/08/19 05:52:18;;;;;;;33.10;30.10;;;20.60;98.50;;;21.26;79.18;97470.66;5031006;28;20458;-73
2022/08/19 05:54:47;;;;;;;32.53;29.33;;;20.70;98.00;;;21.59;77.77;97465.16;5028382;28;20891;-71
2022/08/19 05:57:15;;;;;;;33.67;30.57;;;20.90;97.20;;;21.81;76.78;97469.19;5029342;28;20949;-71
2022/08/19 05:59:43;;;;;;;31.20;28.27;;;21.20;95.90;;;21.97;76.55;97469.75;5029589;28;20585;-70
2022/08/19 06:02:13;;;;;;;31.60;28.80;;;21.40;95.50;;;22.28;73.93;97462.81;5046383;28;20457;-70
2022/08/19 06:04:42;;;;;;;30.97;28.07;;;21.60;93.60;;;22.29;74.02;97458.94;5021209;28;20453;-70
2022/08/19 06:07:09;;;;;;;31.30;28.30;;;21.80;93.10;;;22.28;74.21;97460.06;5010475;28;20926;-70
2022/08/19 06:09:37;;;;;;;31.13;28.20;;;21.80;93.20;;;22.34;73.84;97453.34;5008404;28;20446;-71
2022/08/19 06:12:05;;;;;;;32.20;29.40;;;21.90;92.80;;;22.27;73.80;97453.75;5011072;28;20566;-72
2022/08/19 06:14:35;;;;;;;32.17;29.27;;;21.80;92.80;;;22.29;72.99;97448.75;5024170;28;20470;-71
2022/08/19 06:17:04;;;;;;;30.50;27.83;;;21.90;92.10;;;22.27;73.22;97458.44;5010622;28;20952;-70
2022/08/19 06:19:32;;;;;;;29.03;26.30;;;21.80;92.30;;;22.17;73.23;97454.78;5009468;28;20454;-70
2022/08/19 06:22:01;;;;;;;31.80;28.93;;;21.80;92.10;;;22.06;73.38;97456.09;5026055;28;20453;-72
2022/08/19 06:24:31;;;;;;;30.93;27.97;;;21.80;92.10;;;21.93;74.67;97452.22;5008282;28;20455;-69
2022/08/19 06:27:00;;;;;;;31.07;28.33;;;21.60;92.80;;;21.97;74.54;97442.25;5025830;28;20443;-69
2022/08/19 06:29:29;;;;;;;30.40;27.70;;;21.60;93.00;;;21.79;75.12;97452.19;5009572;28;20491;-70
2022/08/19 06:31:59;;;;;;;29.70;26.90;;;21.50;93.10;;;21.81;75.21;97457.41;5024566;28;20460;-70
2022/08/19 06:34:30;;;;;;;29.27;26.50;;;21.50;93.40;;;22.15;74.20;97445.19;5012622;28;20462;-70
2022/08/19 06:37:01;;;;;;;28.23;25.50;;;21.70;93.50;;;22.52;72.30;97454.41;5025581;28;20548;-71
2022/08/19 06:39:31;;;;;;;26.33;23.93;;;22.00;92.10;;;22.60;71.90;97450.09;5009488;28;20477;-70
2022/08/19 06:42:02;;;;;;;26.20;23.73;;;22.10;91.60;;;22.63;71.10;97458.53;5010924;28;20510;-70
2022/08/19 06:44:35;;;;;;;24.40;22.40;;;22.30;91.10;;;22.32;72.08;97450.91;5026729;28;20538;-71
2022/08/19 06:47:04;;;;;;;24.80;22.60;;;22.10;91.20;;;22.32;72.40;97469.34;5045433;28;20815;-70
2022/08/19 06:49:31;;;;;;;26.47;24.17;;;21.90;91.60;;;22.11;73.20;97471.69;5043735;28;20507;-69
2022/08/19 06:52:01;;;;;;;23.53;21.43;;;21.80;92.00;;;21.93;73.62;97477.78;5029239;28;20592;-70
2022/08/19 06:54:29;;;;;;;22.67;20.77;;;21.60;92.20;;;21.80;74.34;97475.81;5027731;28;20454;-69
2022/08/19 06:56:58;;;;;;;25.40;23.07;;;21.50;92.60;;;21.94;74.69;97473.09;5029371;28;20556;-70
2022/08/19 06:59:27;;;;;;;24.43;22.13;;;21.50;93.50;;;21.90;74.38;97480.31;5028511;28;20502;-70
2022/08/19 07:01:58;;;;;;;28.60;21.60;;;21.50;93.00;;;21.91;74.29;97487.44;5029819;28;20478;-71
2022/08/19 07:04:28;;;;;;;20.50;18.47;;;21.50;93.10;;;21.95;73.24;97491.22;5027962;28;20476;-70
2022/08/19 07:07:01;;;;;;;18.43;16.93;;;21.50;92.60;;;22.02;72.45;97502.63;5028188;28;21032;-70
2022/08/19 07:09:29;;;;;;;18.30;16.90;;;21.60;91.90;;;22.28;71.95;97493.91;5023710;28;20450;-69
2022/08/19 07:11:57;;;;;;;18.50;16.90;;;21.70;91.80;;;22.38;71.00;97486.59;5025100;28;20499;-69
2022/08/19 07:14:27;;;;;;;17.03;15.63;;;21.90;91.20;;;22.44;70.90;97493.59;5022386;28;20459;-69
2022/08/19 07:16:57;;;;;;;18.40;16.67;;;22.00;90.90;;;22.62;69.79;97498.19;5009738;28;20801;-69
2022/08/19 07:19:28;;;;;;;17.40;15.87;;;22.20;90.60;;;22.56;70.56;97504.13;5007789;28;20473;-69
2022/08/19 07:21:56;;;;;;;18.43;16.83;;;22.10;90.70;;;22.20;71.65;97502.84;5025200;28;20448;-69
2022/08/19 07:24:28;;;;;;;19.17;17.57;;;21.90;90.90;;;22.16;71.67;97499.09;5008315;28;20534;-70
2022/08/19 07:27:00;;;;;;;18.83;17.23;;;21.80;91.20;;;22.20;72.20;97513.88;5029588;28;20453;-70
2022/08/19 07:29:29;;;;;;;20.47;18.67;;;21.80;91.60;;;22.25;71.56;97505.53;5027285;28;20536;-72
2022/08/19 07:31:58;;;;;;;20.10;18.30;;;21.80;91.50;;;22.15;72.55;97522.22;5044561;28;20507;-71
2022/08/19 07:34:26;;;;;;;21.10;19.40;;;21.80;91.80;;;22.05;72.89;97524.03;5026152;28;20453;-70
2022/08/19 07:36:55;;;;;;;19.97;18.27;;;21.70;92.00;;;21.91;73.12;97517.69;5029126;28;20476;-71
2022/08/19 07:39:28;;;;;;;20.47;18.70;;;21.50;92.20;;;21.68;74.30;97519.47;5026974;28;20490;-71
2022/08/19 07:41:58;;;;;;;21.20;19.30;;;21.40;92.70;;;21.64;74.59;97520.03;5027116;28;20467;-70
2022/08/19 07:44:27;;;;;;;20.37;18.77;;;21.30;93.00;;;21.39;75.53;97518.53;5026922;28;20454;-70
2022/08/19 07:46:58;;;;;;;20.43;18.73;;;21.10;93.50;;;21.25;76.36;97523.13;5029132;28;20537;-71
2022/08/19 07:49:25;;;;;;;20.47;18.63;;;21.00;93.80;;;21.32;76.16;97524.38;5026921;28;20468;-70
2022/08/19 07:51:56;;;;;;;21.57;19.67;;;21.00;94.30;;;21.22;76.30;97519.88;5028475;28;20460;-71
2022/08/19 07:54:27;;;;;;;20.30;18.53;;;21.00;94.20;;;21.38;75.79;97514.16;5041864;28;20470;-71
2022/08/19 07:56:55;;;;;;;20.93;19.03;;;21.10;94.10;;;21.39;75.77;97524.00;5029048;28;20628;-70
2022/08/19 07:59:23;;;;;;;20.63;18.83;;;21.10;93.80;;;21.40;75.58;97517.41;5027827;28;20452;-74
2022/08/19 08:01:52;;;;;;;20.00;18.20;;;21.10;93.80;;;21.48;76.42;97526.91;5029011;28;20474;-70
2022/08/19 08:09:53;;;;;;;21.97;19.97;;;21.20;93.20;;;21.47;74.39;97501.38;5027365;28;20448;-69
2022/08/19 08:12:28;;;;;;;21.30;19.23;;;21.20;92.90;;;21.75;74.21;97504.22;5028568;28;20478;-70
2022/08/19 08:14:58;;;;;;;21.07;19.20;;;21.40;92.80;;;22.01;73.03;97501.00;5026244;28;20440;-71
2022/08/19 08:17:28;;;;;;;20.33;18.47;;;21.60;92.40;;;21.98;72.14;97485.13;5019285;28;20461;-70
2022/08/19 08:19:57;;;;;;;21.63;19.77;;;21.70;91.60;;;22.40;71.05;97500.84;5027690;28;20448;-70
2022/08/19 08:25:16;;;;;;;20.50;18.70;;;22.20;90.40;;;22.61;69.93;97506.78;5026255;28;20544;-71
2022/08/19 08:27:45;;;;;;;20.83;19.13;;;22.20;90.40;;;22.69;69.31;97497.78;5028441;28;20453;-70
2022/08/19 08:30:18;;;;;;;20.87;19.00;;;22.30;90.10;;;22.73;69.60;97492.47;5041687;28;20867;-69
2022/08/19 08:32:46;;;;;;;21.03;19.23;;;22.40;90.20;;;22.73;69.11;97489.72;5028289;28;20956;-70
2022/08/19 08:35:16;;;;;;;20.57;18.77;;;22.40;90.00;;;22.82;69.41;97478.81;5041100;28;20451;-71
2022/08/19 08:37:44;;;;;;;22.90;20.80;;;22.40;90.20;;;22.93;68.80;97492.03;5043631;28;20454;-71
2022/08/19 08:40:21;;;;;;;21.97;20.10;;;22.60;89.80;;;22.72;69.10;97490.84;5030124;28;20942;-71
2022/08/19 08:42:58;;;;;;;23.07;21.03;;;22.50;90.00;;;22.42;69.28;97438.06;5042563;28;20459;-69
2022/08/19 08:45:25;;;;;;;21.27;19.37;;;22.40;90.00;;;22.34;70.02;97489.91;5025982;28;20485;-70
2022/08/19 08:47:58;;;;;;;25.60;23.20;;;22.20;89.80;;;22.11;71.56;97485.44;5026928;28;20445;-70
2022/08/19 08:50:35;;;;;;;29.40;26.53;;;22.00;90.50;;;21.91;73.06;97498.44;5017894;28;20458;-70
2022/08/19 08:53:05;;;;;;;31.00;28.20;;;21.80;91.30;;;21.83;73.56;97510.16;5008345;28;20446;-71
2022/08/19 08:55:34;;;;;;;32.07;29.03;;;21.70;91.80;;;21.61;74.85;97506.06;5030038;28;20843;-71
2022/08/19 08:58:07;;;;;;;34.50;31.00;;;21.40;92.90;;;21.62;75.02;97510.47;5028178;28;20508;-70
2022/08/19 09:00:40;;;;;;;32.03;28.27;;;21.20;93.70;;;21.49;75.34;97512.03;5025077;28;20446;-70
2022/08/19 09:03:15;;;;;;;32.00;29.10;;;21.20;93.80;;;21.44;75.37;97515.69;5028261;28;21024;-69
2022/08/19 09:05:57;;;;;;;32.03;28.80;;;21.10;93.70;;;21.28;75.98;97517.03;5024617;28;20452;-71
2022/08/19 09:08:42;;;;;;;31.87;28.87;;;21.00;94.10;;;21.27;75.85;97520.91;5027593;28;20871;-71
2022/08/19 09:11:16;;;;;;;32.57;29.27;;;21.00;94.00;;;21.38;75.40;97503.16;5010114;28;20457;-70
2022/08/19 09:14:00;;;;;;;33.10;29.93;;;21.00;94.10;;;21.37;75.62;97513.31;5023747;28;20449;-72
2022/08/19 09:16:28;;;;;;;31.60;28.30;;;21.00;94.10;;;21.48;75.49;97511.25;5005445;28;20464;-71
2022/08/19 09:19:07;;;;;;;29.97;27.07;;;21.10;94.10;;;21.48;75.27;97516.75;5008884;28;20458;-71
2022/08/19 09:21:35;;;;;;;31.67;28.60;;;21.20;94.00;;;21.71;74.44;97518.88;5005442;28;20580;-71
2022/08/19 09:24:04;;;;;;;29.90;27.03;;;21.30;93.20;;;21.74;73.54;97508.06;5010929;28;20997;-69
2022/08/19 09:26:34;;;;;;;29.90;27.10;;;21.40;92.40;;;21.69;73.26;97510.13;5041702;28;20463;-70
2022/08/19 09:29:01;;;;;;;29.03;26.03;;;21.40;92.20;;;21.61;73.81;97515.16;5027944;28;20500;-70
2022/08/19 09:31:32;;;;;;;27.93;25.10;;;21.40;92.30;;;21.59;73.63;97511.88;5026109;28;20468;-70
2022/08/19 09:34:00;;;;;;;29.13;26.53;;;21.30;92.20;;;21.28;74.76;97506.06;5027176;28;20480;-70
2022/08/19 09:36:32;;;;;;;28.60;25.90;;;21.20;92.50;;;21.36;74.75;97519.13;5024111;28;20498;-70
2022/08/19 09:39:00;;;;;;;28.93;26.27;;;21.10;93.10;;;21.35;74.75;97518.28;5027342;28;20949;-70
2022/08/19 09:41:28;;;;;;;28.03;25.53;;;21.00;93.30;;;21.18;75.69;97523.50;5041590;28;20948;-72
2022/08/19 09:43:59;;;;;;;28.53;25.83;;;21.00;93.60;;;21.34;75.34;97518.59;5030424;28;20992;-71
2022/08/19 09:46:30;;;;;;;27.37;24.80;;;21.00;93.80;;;21.54;74.83;97517.47;5029519;28;20448;-70
2022/08/19 09:49:00;;;;;;;28.03;25.53;;;21.10;93.60;;;21.52;74.21;97509.53;5030235;28;20842;-70
2022/08/19 09:51:29;;;;;;;28.40;25.90;;;21.20;92.80;;;21.63;74.03;97507.41;5030158;28;20435;-70
2022/08/19 09:54:02;;;;;;;27.10;24.67;;;21.40;92.60;;;21.93;72.88;97509.97;5046180;28;20451;-69
2022/08/19 09:56:30;;;;;;;27.23;24.43;;;21.50;92.20;;;21.94;72.50;97508.84;5029405;28;20473;-71
2022/08/19 09:59:00;;;;;;;26.53;24.03;;;21.70;91.50;;;21.94;72.50;97517.09;5030301;28;20460;-69
2022/08/19 10:01:30;;;;;;;29.33;26.50;;;21.70;91.40;;;22.00;72.34;97515.09;5029897;28;20450;-70
2022/08/19 10:04:00;;;;;;;29.10;26.30;;;21.70;91.40;;;21.69;73.24;97527.41;5013410;28;20543;-71
2022/08/19 10:06:32;;;;;;;30.63;25.80;;;21.60;91.60;;;21.69;73.50;97516.41;5009296;28;20442;-71
2022/08/19 10:09:00;;;;;;;31.23;28.10;;;21.50;91.90;;;21.62;73.74;97527.78;5021875;28;20816;-70
2022/08/19 10:11:28;;;;;;;28.20;25.30;;;21.40;92.10;;;21.81;73.53;97528.88;5017561;28;20448;-69
2022/08/19 10:13:56;;;;;;;27.80;25.10;;;21.40;92.50;;;21.95;72.65;97524.22;5025725;28;20465;-70
2022/08/19 10:16:25;;;;;;;29.03;26.30;;;21.50;92.20;;;22.18;71.90;97524.34;5009333;28;20972;-69
2022/08/19 10:18:54;;;;;;;28.83;25.97;;;21.60;92.10;;;22.20;71.20;97519.38;5010955;28;20464;-70
2022/08/19 10:21:25;;;;;;;27.67;25.07;;;21.70;91.60;;;22.14;71.49;97526.09;5009587;28;20461;-70
2022/08/19 10:23:56;;;;;;;29.97;27.07;;;21.80;91.30;;;21.92;72.26;97522.09;5010791;28;20487;-70
2022/08/19 10:26:26;;;;;;;30.03;27.20;;;21.70;91.50;;;21.89;72.60;97531.75;5039564;28;20457;-70
2022/08/19 10:28:54;;;;;;;28.63;25.83;;;21.60;91.60;;;21.81;73.24;97537.13;5044336;28;20522;-70
2022/08/19 10:31:27;;;;;;;29.33;26.43;;;21.50;91.90;;;21.74;73.00;97540.25;5029216;28;20929;-70